createdAt,value
2022-10-22T00:02:55.879Z,100307.63
2022-10-22T00:05:59.368Z,100306.59
2022-10-22T00:09:02.114Z,100323.59
2022-10-22T00:12:05.444Z,100312.38
2022-10-22T00:15:08.382Z,100304.47
2022-10-22T00:18:11.330Z,100307.53
2022-10-22T00:21:13.951Z,100312.78
2022-10-22T00:24:16.819Z,100313.94
2022-10-22T00:27:19.594Z,100305.97
2022-10-22T00:30:23.115Z,100311.78
2022-10-22T00:33:26.264Z,100302.75
2022-10-22T00:36:29.121Z,100302.19
2022-10-22T00:39:32.157Z,100300.34
2022-10-22T00:42:34.979Z,100294.50
2022-10-22T00:45:37.524Z,100287.28
2022-10-22T00:48:40.615Z,100288.63
2022-10-22T00:51:43.130Z,100283.31
2022-10-22T00:54:45.981Z,100267.66
2022-10-22T00:57:49.081Z,100293.06
2022-10-22T01:00:52.041Z,100297.78
2022-10-22T01:03:55.144Z,100301.56
2022-10-22T01:06:58.010Z,100304.72
2022-10-22T01:10:09.961Z,100311.28
2022-10-22T01:13:18.701Z,100315.88
2022-10-22T01:16:45.289Z,100316.13
2022-10-22T01:20:00.259Z,100317.00
2022-10-22T01:23:02.705Z,100311.56
2022-10-22T01:26:18.179Z,100309.62
2022-10-22T01:29:29.489Z,100306.00
2022-10-22T01:32:38.282Z,100303.16
2022-10-22T01:35:44.547Z,100293.84
2022-10-22T01:38:49.991Z,100282.75
2022-10-22T01:41:55.865Z,100283.78
2022-10-22T01:44:58.740Z,100278.56
2022-10-22T01:48:21.503Z,100263.53
2022-10-22T01:51:38.988Z,100250.03
2022-10-22T01:55:10.762Z,100256.91
2022-10-22T01:58:22.668Z,100261.37
2022-10-22T02:01:48.054Z,100259.91
2022-10-22T02:04:55.276Z,100256.47
2022-10-22T02:08:11.980Z,100250.94
2022-10-22T02:11:15.966Z,100258.69
2022-10-22T02:14:19.608Z,100267.41
2022-10-22T02:17:24.014Z,100257.34
2022-10-22T02:20:30.143Z,100267.97
2022-10-22T02:23:33.199Z,100268.53
2022-10-22T02:26:47.294Z,100272.47
2022-10-22T02:29:54.499Z,100273.75
2022-10-22T02:33:08.665Z,100265.28
2022-10-22T02:36:12.613Z,100253.59
2022-10-22T02:42:28.405Z,100252.78
2022-10-22T02:45:31.787Z,100259.62
2022-10-22T02:48:34.675Z,100269.44
2022-10-22T02:51:37.200Z,100262.81
2022-10-22T02:54:40.074Z,100253.16
2022-10-22T02:57:42.873Z,100252.81
2022-10-22T03:00:46.138Z,100263.22
2022-10-22T03:03:48.786Z,100271.69
2022-10-22T03:06:51.618Z,100279.62
2022-10-22T03:09:54.377Z,100268.53
2022-10-22T03:12:57.375Z,100267.19
2022-10-22T03:15:59.966Z,100277.50
2022-10-22T03:19:02.846Z,100271.97
2022-10-22T03:22:14.738Z,100270.59
2022-10-22T03:25:21.163Z,100269.22
2022-10-22T03:28:23.997Z,100268.38
2022-10-22T03:31:26.954Z,100256.72
2022-10-22T03:34:29.693Z,100253.47
2022-10-22T03:37:34.714Z,100266.94
2022-10-22T03:40:37.590Z,100268.59
2022-10-22T03:43:41.185Z,100252.12
2022-10-22T03:46:44.095Z,100254.63
2022-10-22T03:49:46.967Z,100245.78
2022-10-22T03:52:49.662Z,100230.69
2022-10-22T03:55:52.683Z,100215.34
2022-10-22T03:59:00.893Z,100209.63
2022-10-22T04:02:04.605Z,100213.22
2022-10-22T04:05:08.110Z,100219.19
2022-10-22T04:08:15.734Z,100239.97
2022-10-22T04:11:18.613Z,100247.84
2022-10-22T04:14:21.349Z,100250.19
2022-10-22T04:17:24.435Z,100254.81
2022-10-22T04:20:27.179Z,100245.34
2022-10-22T04:23:30.262Z,100234.97
2022-10-22T04:26:32.999Z,100233.59
2022-10-22T04:29:36.207Z,100235.62
2022-10-22T04:32:38.861Z,100234.00
2022-10-22T04:35:41.774Z,100227.88
2022-10-22T04:38:46.691Z,100238.09
2022-10-22T04:41:49.770Z,100227.81
2022-10-22T04:44:52.490Z,100238.59
2022-10-22T04:47:55.607Z,100244.28
2022-10-22T04:50:59.034Z,100240.37
2022-10-22T04:54:01.999Z,100230.25
2022-10-22T04:57:04.679Z,100233.09
2022-10-22T05:00:08.552Z,100230.50
2022-10-22T05:03:11.424Z,100236.53
2022-10-22T05:06:15.080Z,100239.28
2022-10-22T05:09:20.545Z,100233.00
2022-10-22T05:12:26.791Z,100227.50
2022-10-22T05:15:29.585Z,100219.59
2022-10-22T05:18:36.447Z,100213.03
2022-10-22T05:21:39.240Z,100220.56
2022-10-22T05:25:07.390Z,100225.19
2022-10-22T05:28:10.306Z,100234.88
2022-10-22T05:31:34.313Z,100241.53
2022-10-22T05:34:38.813Z,100238.38
2022-10-22T05:37:42.839Z,100248.25
2022-10-22T05:41:05.312Z,100238.09
2022-10-22T05:44:12.237Z,100233.16
2022-10-22T05:47:18.090Z,100237.78
2022-10-22T05:50:39.616Z,100244.19
2022-10-22T05:53:43.614Z,100253.91
2022-10-22T05:56:46.999Z,100260.69
2022-10-22T06:00:11.617Z,100264.91
2022-10-22T06:03:18.774Z,100269.91
2022-10-22T06:06:35.903Z,100269.34
2022-10-22T06:09:39.586Z,100274.72
2022-10-22T06:12:42.751Z,100272.81
2022-10-22T06:15:45.955Z,100269.47
2022-10-22T06:18:48.790Z,100284.34
2022-10-22T06:22:12.246Z,100284.44
2022-10-22T06:25:15.275Z,100286.00
2022-10-22T06:28:25.109Z,100296.97
2022-10-22T06:31:28.948Z,100294.34
2022-10-22T06:34:34.584Z,100281.25
2022-10-22T06:37:37.516Z,100277.94
2022-10-22T06:40:43.658Z,100282.25
2022-10-22T06:43:47.141Z,100285.31
2022-10-22T06:46:53.445Z,100283.34
2022-10-22T06:49:56.337Z,100295.53
2022-10-22T06:52:59.390Z,100300.34
2022-10-22T06:56:27.809Z,100300.34
2022-10-22T06:59:30.950Z,100297.63
2022-10-22T07:02:34.540Z,100295.75
2022-10-22T07:05:42.334Z,100289.59
2022-10-22T07:08:45.071Z,100276.78
2022-10-22T07:11:51.560Z,100285.84
2022-10-22T07:14:54.329Z,100272.97
2022-10-22T07:17:57.441Z,100285.41
2022-10-22T07:21:00.654Z,100278.78
2022-10-22T07:24:03.983Z,100283.75
2022-10-22T07:27:09.518Z,100285.56
2022-10-22T07:30:14.942Z,100276.22
2022-10-22T07:33:17.737Z,100279.59
2022-10-22T07:36:20.849Z,100282.22
2022-10-22T07:39:25.836Z,100282.31
2022-10-22T07:45:33.702Z,100292.50
2022-10-22T07:48:37.807Z,100295.22
2022-10-22T07:51:40.629Z,100292.00
2022-10-22T07:54:46.033Z,100303.31
2022-10-22T07:57:48.544Z,100293.66
2022-10-22T08:00:54.910Z,100290.31
2022-10-22T08:03:57.785Z,100279.44
2022-10-22T08:07:00.893Z,100275.28
2022-10-22T08:10:04.050Z,100281.66
2022-10-22T08:13:07.668Z,100276.84
2022-10-22T08:16:10.551Z,100279.16
2022-10-22T08:19:21.249Z,100298.31
2022-10-22T08:22:24.210Z,100285.31
2022-10-22T08:25:27.317Z,100292.97
2022-10-22T08:28:32.846Z,100285.34
2022-10-22T08:31:35.556Z,100284.34
2022-10-22T08:34:38.546Z,100290.53
2022-10-22T08:37:41.479Z,100300.69
2022-10-22T08:44:16.623Z,100291.34
2022-10-22T08:47:39.821Z,100287.25
2022-10-22T08:50:48.845Z,100281.94
2022-10-22T08:54:15.514Z,100288.06
2022-10-22T08:57:51.405Z,100293.94
2022-10-22T09:01:14.850Z,100288.50
2022-10-22T09:04:41.467Z,100280.84
2022-10-22T09:07:50.107Z,100286.62
2022-10-22T09:11:02.194Z,100282.56
2022-10-22T09:14:06.495Z,100289.62
2022-10-22T09:17:41.506Z,100285.63
2022-10-22T09:20:58.967Z,100287.78
2022-10-22T09:24:14.121Z,100300.81
2022-10-22T09:27:20.141Z,100303.28
2022-10-22T09:30:25.172Z,100298.56
2022-10-22T09:33:30.850Z,100293.66
2022-10-22T09:36:35.213Z,100294.13
2022-10-22T09:39:40.459Z,100299.94
2022-10-22T09:42:44.887Z,100305.19
2022-10-22T09:45:49.138Z,100301.87
2022-10-22T09:49:10.290Z,100300.78
2022-10-22T09:52:35.449Z,100305.06
2022-10-22T09:55:39.518Z,100289.50
2022-10-22T09:58:45.235Z,100286.56
2022-10-22T10:05:32.241Z,100294.41
2022-10-22T10:08:35.246Z,100299.38
2022-10-22T10:11:48.943Z,100289.69
2022-10-22T10:15:23.346Z,100280.03
2022-10-22T10:18:33.687Z,100272.00
2022-10-22T10:21:48.774Z,100269.12
2022-10-22T10:25:17.535Z,100279.19
2022-10-22T10:28:39.390Z,100286.56
2022-10-22T10:32:01.033Z,100292.00
2022-10-22T10:35:15.493Z,100288.25
2022-10-22T10:38:48.473Z,100298.25
2022-10-22T10:42:08.646Z,100287.28
2022-10-22T10:45:31.723Z,100287.38
2022-10-22T10:48:46.947Z,100294.94
2022-10-22T10:52:04.666Z,100295.25
2022-10-22T10:55:18.503Z,100290.09
2022-10-22T10:58:33.766Z,100287.94
2022-10-22T11:01:55.531Z,100287.00
2022-10-22T11:05:22.345Z,100282.19
2022-10-22T11:08:30.934Z,100273.44
2022-10-22T11:11:40.282Z,100276.22
2022-10-22T11:15:32.318Z,100265.38
2022-10-22T11:18:41.695Z,100271.88
2022-10-22T11:21:51.700Z,100281.69
2022-10-22T11:25:15.757Z,100273.53
2022-10-22T11:28:25.843Z,100257.56
2022-10-22T11:31:31.079Z,100271.59
2022-10-22T11:34:41.321Z,100247.66
2022-10-22T11:37:46.438Z,100237.94
2022-10-22T11:41:00.916Z,100233.56
2022-10-22T11:44:12.136Z,100232.81
2022-10-22T11:47:20.911Z,100231.88
2022-10-22T11:51:00.179Z,100229.28
2022-10-22T11:54:31.411Z,100231.06
2022-10-22T11:57:39.336Z,100239.78
2022-10-22T12:00:49.199Z,100241.97
2022-10-22T12:04:13.663Z,100225.19
2022-10-22T12:07:31.553Z,100219.34
2022-10-22T12:10:51.159Z,100231.97
2022-10-22T12:14:26.774Z,100222.12
2022-10-22T12:17:31.292Z,100200.53
2022-10-22T12:20:34.602Z,100199.72
2022-10-22T12:23:37.795Z,100208.25
2022-10-22T12:26:40.543Z,100216.97
2022-10-22T12:29:43.664Z,100216.50
2022-10-22T12:32:47.925Z,100214.38
2022-10-22T12:35:58.789Z,100226.09
2022-10-22T12:39:18.244Z,100223.72
2022-10-22T12:42:25.211Z,100225.78
2022-10-22T12:45:34.456Z,100229.25
2022-10-22T12:48:42.127Z,100237.03
2022-10-22T13:14:38.722Z,100251.75
2022-10-22T13:17:42.795Z,100252.81
2022-10-22T13:21:03.482Z,100249.34
2022-10-22T13:24:27.052Z,100247.47
2022-10-22T13:27:31.795Z,100243.19
2022-10-22T13:30:37.065Z,100256.97
2022-10-22T13:33:43.575Z,100255.53
2022-10-22T13:36:46.791Z,100264.88
2022-10-22T13:39:49.804Z,100265.06
2022-10-22T13:42:52.900Z,100275.81
2022-10-22T13:45:59.081Z,100273.38
2022-10-22T13:49:25.654Z,100270.06
2022-10-22T13:52:53.397Z,100279.72
2022-10-22T13:56:21.561Z,100280.97
2022-10-22T13:59:24.231Z,100278.31
2022-10-22T14:02:28.209Z,100280.97
2022-10-22T14:05:32.662Z,100290.91
2022-10-22T14:08:35.372Z,100298.66
2022-10-22T14:11:38.942Z,100296.28
2022-10-22T14:14:41.696Z,100292.91
2022-10-22T14:17:49.591Z,100284.78
2022-10-22T14:20:55.361Z,100293.28
2022-10-22T14:23:58.306Z,100291.41
2022-10-22T14:27:00.857Z,100296.59
2022-10-22T14:30:04.534Z,100290.31
2022-10-22T14:33:18.988Z,100288.75
2022-10-22T14:36:22.143Z,100278.44
2022-10-22T14:39:24.995Z,100276.00
2022-10-22T14:42:28.717Z,100280.56
2022-10-22T14:45:31.833Z,100281.44
2022-10-22T14:48:34.989Z,100284.84
2022-10-22T14:51:37.713Z,100287.03
2022-10-22T14:54:40.565Z,100291.19
2022-10-22T14:57:43.759Z,100291.59
2022-10-22T15:00:47.908Z,100305.37
2022-10-22T15:03:50.703Z,100304.87
2022-10-22T15:06:56.429Z,100303.34
2022-10-22T15:09:59.193Z,100309.31
2022-10-22T15:13:02.086Z,100303.00
2022-10-22T15:16:10.466Z,100313.53
2022-10-22T15:19:22.745Z,100309.84
2022-10-22T15:22:25.732Z,100309.06
2022-10-22T15:25:28.861Z,100311.47
2022-10-22T15:28:31.912Z,100298.47
2022-10-22T15:32:00.620Z,100312.00
2022-10-22T15:35:05.758Z,100321.75
2022-10-22T15:38:10.022Z,100322.06
2022-10-22T15:41:13.640Z,100313.22
2022-10-22T15:44:30.712Z,100322.66
2022-10-22T15:47:33.998Z,100315.97
2022-10-22T15:50:39.915Z,100325.50
2022-10-22T15:53:43.360Z,100328.50
2022-10-22T15:56:46.679Z,100333.53
2022-10-22T15:59:52.202Z,100345.84
2022-10-22T16:02:55.363Z,100359.03
2022-10-22T16:05:58.722Z,100367.53
2022-10-22T16:09:03.945Z,100379.31
2022-10-22T16:12:07.397Z,100383.78
2022-10-22T16:15:10.518Z,100391.59
2022-10-22T16:18:13.560Z,100400.88
2022-10-22T16:21:16.390Z,100414.13
2022-10-22T16:24:20.951Z,100433.22
2022-10-22T16:27:23.886Z,100430.47
2022-10-22T16:30:27.288Z,100446.59
2022-10-22T16:33:39.193Z,100454.88
2022-10-22T16:36:46.062Z,100454.19
2022-10-22T16:39:49.802Z,100454.88
2022-10-22T16:42:53.020Z,100458.63
2022-10-22T16:45:56.099Z,100449.59
2022-10-22T16:49:01.289Z,100448.56
2022-10-22T16:52:04.388Z,100454.56
2022-10-22T16:55:09.177Z,100450.00
2022-10-22T16:58:12.033Z,100443.91
2022-10-22T17:01:18.417Z,100447.66
2022-10-22T17:04:22.502Z,100445.59
2022-10-22T17:07:25.802Z,100440.87
2022-10-22T17:10:28.806Z,100447.75
2022-10-22T17:13:32.111Z,100448.28
2022-10-22T17:16:38.529Z,100453.97
2022-10-22T17:19:41.726Z,100449.25
2022-10-22T17:22:44.937Z,100458.88
2022-10-22T17:25:48.182Z,100462.91
2022-10-22T17:28:51.266Z,100467.25
2022-10-22T17:31:54.572Z,100470.50
2022-10-22T17:34:58.858Z,100466.00
2022-10-22T17:38:02.200Z,100469.28
2022-10-22T17:41:06.993Z,100480.78
2022-10-22T17:44:12.395Z,100485.41
2022-10-22T17:47:15.799Z,100484.87
2022-10-22T17:50:22.624Z,100473.41
2022-10-22T17:53:25.795Z,100475.28
2022-10-22T17:56:30.476Z,100457.87
2022-10-22T17:59:33.663Z,100475.31
2022-10-22T18:02:38.108Z,100491.06
2022-10-22T18:20:34.809Z,100492.38
2022-10-22T18:23:57.669Z,100502.53
2022-10-22T18:27:04.087Z,100512.69
2022-10-22T18:30:11.896Z,100529.09
2022-10-22T18:33:17.805Z,100528.22
2022-10-22T18:36:23.086Z,100517.25
2022-10-22T18:39:26.297Z,100526.81
2022-10-22T18:42:32.929Z,100536.19
2022-10-22T18:45:45.716Z,100524.75
2022-10-22T18:48:49.167Z,100510.34
2022-10-22T18:51:53.357Z,100498.88
2022-10-22T18:54:57.114Z,100521.53
2022-10-22T18:58:00.197Z,100526.34
2022-10-22T19:01:10.855Z,100526.41
2022-10-22T19:04:14.444Z,100537.88
2022-10-22T19:07:19.283Z,100541.94
2022-10-22T19:10:22.688Z,100557.16
2022-10-22T19:13:26.799Z,100558.00
2022-10-22T19:16:35.265Z,100562.31
2022-10-22T19:19:39.080Z,100562.31
2022-10-22T19:22:45.087Z,100577.81
2022-10-22T19:25:48.538Z,100577.81
2022-10-22T19:28:53.155Z,100582.66
2022-10-22T19:31:56.658Z,100580.59
2022-10-22T19:35:03.215Z,100578.94
2022-10-22T19:38:07.046Z,100589.13
2022-10-22T19:41:12.700Z,100581.69
2022-10-22T19:44:16.369Z,100580.94
2022-10-22T19:47:20.233Z,100589.47
2022-10-22T19:50:24.312Z,100595.34
2022-10-22T19:53:27.932Z,100590.81
2022-10-22T19:56:36.183Z,100590.28
2022-10-22T19:59:39.656Z,100590.50
2022-10-22T20:02:44.451Z,100600.94
2022-10-22T20:05:50.850Z,100595.31
2022-10-22T20:08:56.122Z,100613.97
2022-10-22T20:11:59.931Z,100616.13
2022-10-22T20:15:04.041Z,100608.41
2022-10-22T20:18:07.356Z,100610.00
2022-10-22T20:21:23.716Z,100606.25
2022-10-22T20:24:27.354Z,100607.06
2022-10-22T20:27:30.475Z,100605.47
2022-10-22T20:30:34.047Z,100610.81
2022-10-22T20:33:37.149Z,100614.00
2022-10-22T20:36:41.776Z,100619.34
2022-10-22T20:39:44.806Z,100617.47
2022-10-22T20:42:49.410Z,100620.94
2022-10-22T20:45:52.327Z,100629.75
2022-10-22T20:49:02.339Z,100629.75
2022-10-22T20:52:05.606Z,100645.75
2022-10-22T20:55:08.811Z,100652.66
2022-10-22T20:58:11.808Z,100648.41
2022-10-22T21:01:21.794Z,100643.63
2022-10-22T21:04:24.934Z,100643.91
2022-10-22T21:07:27.969Z,100646.03
2022-10-22T21:10:32.689Z,100648.72
2022-10-22T21:13:36.215Z,100653.22
2022-10-22T21:16:49.395Z,100656.16
2022-10-22T21:19:52.667Z,100660.69
2022-10-22T21:22:55.763Z,100655.09
2022-10-22T21:25:59.280Z,100652.19
2022-10-22T21:29:02.229Z,100657.47
2022-10-22T21:32:05.548Z,100658.56
2022-10-22T21:35:08.652Z,100657.22
2022-10-22T21:38:11.702Z,100663.38
2022-10-22T21:41:18.380Z,100663.09
2022-10-22T21:44:21.417Z,100660.94
2022-10-22T21:47:24.640Z,100661.78
2022-10-22T21:50:27.645Z,100656.97
2022-10-22T21:53:30.332Z,100652.44
2022-10-22T21:56:35.674Z,100654.84
2022-10-22T21:59:38.439Z,100651.63
2022-10-22T22:02:41.607Z,100650.03
2022-10-22T22:05:44.636Z,100653.22
2022-10-22T22:08:47.895Z,100648.69
2022-10-22T22:11:50.876Z,100659.06
2022-10-22T22:14:53.543Z,100652.69
2022-10-22T22:17:56.671Z,100670.56
2022-10-22T22:21:00.435Z,100664.69
2022-10-22T22:24:04.216Z,100667.09
2022-10-22T22:30:41.433Z,100665.47
2022-10-22T22:33:45.118Z,100671.34
2022-10-22T22:36:49.797Z,100676.12
2022-10-22T22:39:53.275Z,100681.47
2022-10-22T22:42:56.093Z,100682.03
2022-10-22T22:46:04.283Z,100685.75
2022-10-22T22:49:07.327Z,100689.19
2022-10-22T22:52:10.305Z,100688.94
2022-10-22T22:55:13.024Z,100687.06
2022-10-22T22:58:16.147Z,100692.13
2022-10-22T23:01:25.151Z,100693.72
2022-10-22T23:04:30.210Z,100692.91
2022-10-22T23:07:32.930Z,100688.66
2022-10-22T23:10:35.879Z,100704.91
2022-10-22T23:13:39.812Z,100700.63
2022-10-22T23:16:46.593Z,100698.25
2022-10-22T23:19:49.366Z,100709.97
2022-10-22T23:22:52.282Z,100716.38
2022-10-22T23:29:02.243Z,100711.56
2022-10-22T23:32:07.988Z,100716.88
2022-10-22T23:35:11.244Z,100713.16
2022-10-22T23:38:14.073Z,100710.75
2022-10-22T23:41:18.091Z,100716.06
2022-10-22T23:44:22.141Z,100719.81
2022-10-22T23:47:25.292Z,100719.56
2022-10-22T23:50:28.014Z,100721.94
2022-10-22T23:53:31.053Z,100717.41
2022-10-22T23:56:34.511Z,100725.37
2022-10-22T23:59:37.398Z,100728.53
